Time;durP1;ratioP1;P1;durP2;ratioP2;P2;SDS_P1;SDS_P2;PMS_P1;PMS_P2;Temp;Humidity;BMP_temperature;BMP_pressure;BME280_temperature;BME280_humidity;BME280_pressure;Samples;Min_cycle;Max_cycle;Signal;HPM_P1;HPM_P2
2023/06/06 02:48:34;;;;;;;16.07;15.27;;;14.00;99.90;;;;;;5856319;23;20732;-78
2023/06/06 02:51:00;;;;;;;16.37;15.40;;;14.00;99.90;;;;;;4952132;29;20455;-78
2023/06/06 02:53:29;;;;;;;16.40;15.50;;;14.00;99.90;;;;;;4953194;29;20698;-80
2023/06/06 02:55:55;;;;;;;16.40;15.60;;;14.00;99.90;;;;;;4953365;29;20456;-80
2023/06/06 02:58:27;;;;;;;18.27;17.00;;;13.90;99.90;;;;;;4954109;29;20458;-84
2023/06/06 03:00:54;;;;;;;17.93;16.83;;;13.90;99.90;;;;;;4953765;29;20492;-81
2023/06/06 03:03:21;;;;;;;17.77;16.50;;;13.80;99.90;;;;;;4953210;29;20503;-82
2023/06/06 03:05:51;;;;;;;18.43;17.33;;;13.70;99.90;;;;;;4953040;29;20464;-82
2023/06/06 03:08:18;;;;;;;16.70;15.80;;;13.80;99.90;;;;;;4955939;29;20445;-81
2023/06/06 03:10:46;;;;;;;16.50;15.80;;;13.70;99.90;;;;;;4955803;28;20444;-81
2023/06/06 03:13:12;;;;;;;16.33;15.40;;;13.70;99.90;;;;;;4952711;29;20511;-79
2023/06/06 03:15:40;;;;;;;15.60;14.90;;;13.60;99.90;;;;;;4952737;29;20453;-81
2023/06/06 03:18:09;;;;;;;16.87;16.07;;;13.50;99.90;;;;;;4957472;29;20528;-80
2023/06/06 03:20:36;;;;;;;16.80;15.70;;;13.70;99.90;;;;;;4955604;29;20496;-82
2023/06/06 03:23:04;;;;;;;17.33;16.47;;;13.70;99.90;;;;;;4953118;29;20496;-85
2023/06/06 03:25:33;;;;;;;18.03;17.07;;;13.60;99.90;;;;;;4952841;29;20542;-80
2023/06/06 03:28:00;;;;;;;18.00;16.90;;;13.70;99.90;;;;;;4952613;29;20905;-79
2023/06/06 03:30:26;;;;;;;15.87;15.07;;;13.70;99.90;;;;;;4952366;29;20479;-82
2023/06/06 03:32:53;;;;;;;17.90;17.00;;;13.70;99.90;;;;;;4959162;29;20859;-79
2023/06/06 03:35:20;;;;;;;16.17;15.37;;;13.70;99.90;;;;;;4954143;29;20459;-84
2023/06/06 03:37:46;;;;;;;18.23;17.10;;;13.90;99.90;;;;;;4962169;29;20456;-80
2023/06/06 03:40:14;;;;;;;17.57;16.57;;;13.80;99.90;;;;;;4963496;29;20464;-79
2023/06/06 03:42:41;;;;;;;16.60;15.70;;;13.80;99.90;;;;;;4953838;29;20460;-83
2023/06/06 03:45:08;;;;;;;16.80;16.00;;;13.90;99.90;;;;;;4952930;29;20567;-82
2023/06/06 03:47:35;;;;;;;17.50;16.40;;;13.90;99.90;;;;;;4952264;28;20477;-81
2023/06/06 03:50:02;;;;;;;17.53;16.57;;;13.90;99.90;;;;;;4951768;29;20485;-81
2023/06/06 03:52:28;;;;;;;17.10;16.10;;;14.00;99.90;;;;;;4952067;29;20449;-81
2023/06/06 03:54:55;;;;;;;17.20;16.40;;;14.10;99.90;;;;;;4951901;29;20966;-80
2023/06/06 03:57:23;;;;;;;17.40;16.50;;;14.10;99.90;;;;;;4952287;29;20457;-79
2023/06/06 03:59:50;;;;;;;16.10;15.40;;;14.00;99.90;;;;;;4952072;29;20449;-79
2023/06/06 04:02:17;;;;;;;17.90;16.90;;;14.00;99.90;;;;;;4951712;29;20488;-81
2023/06/06 04:04:45;;;;;;;17.87;16.70;;;14.10;99.90;;;;;;4952024;29;20865;-83
2023/06/06 04:07:12;;;;;;;19.13;17.80;;;14.00;99.90;;;;;;4952431;29;20464;-84
2023/06/06 04:09:39;;;;;;;18.10;17.27;;;14.10;99.90;;;;;;4953292;29;20463;-82
2023/06/06 04:12:07;;;;;;;18.83;17.67;;;14.10;99.90;;;;;;4952413;29;20456;-83
2023/06/06 04:14:35;;;;;;;17.40;16.50;;;14.10;99.90;;;;;;4952951;29;20551;-83
2023/06/06 04:17:02;;;;;;;17.67;16.37;;;14.10;99.90;;;;;;4952432;29;20458;-83
2023/06/06 04:19:30;;;;;;;18.37;17.27;;;14.20;99.90;;;;;;4952401;29;20868;-84
2023/06/06 04:21:57;;;;;;;17.33;16.33;;;14.20;99.90;;;;;;4951833;28;20456;-82
2023/06/06 04:24:23;;;;;;;17.40;16.43;;;14.50;99.90;;;;;;4951597;29;20488;-81
2023/06/06 04:26:50;;;;;;;16.73;15.83;;;14.80;99.90;;;;;;4951947;29;20456;-81
2023/06/06 04:29:18;;;;;;;17.40;16.30;;;15.30;99.90;;;;;;4951556;29;20539;-81
2023/06/06 04:31:46;;;;;;;14.77;13.97;;;15.70;99.90;;;;;;4951606;29;20468;-81
2023/06/06 04:34:13;;;;;;;15.47;14.60;;;16.20;99.90;;;;;;4954227;29;20459;-81
2023/06/06 04:36:40;;;;;;;14.63;13.83;;;16.70;99.90;;;;;;4952577;29;20493;-81
2023/06/06 04:39:08;;;;;;;15.57;14.57;;;17.10;99.90;;;;;;4951531;29;20457;-81
2023/06/06 04:41:36;;;;;;;14.57;13.77;;;17.50;99.90;;;;;;4951796;29;20460;-82
2023/06/06 04:44:03;;;;;;;16.27;14.90;;;17.80;99.90;;;;;;4951444;29;20489;-81
2023/06/06 04:46:30;;;;;;;15.53;14.60;;;18.20;99.90;;;;;;4951322;29;20449;-81
2023/06/06 04:49:01;;;;;;;16.57;15.47;;;18.50;99.90;;;;;;4950903;28;20486;-80
2023/06/06 04:51:30;;;;;;;15.30;14.50;;;18.60;99.90;;;;;;4951375;29;20557;-80
2023/06/06 04:53:58;;;;;;;15.20;14.30;;;18.90;99.90;;;;;;4951336;29;20445;-80
2023/06/06 04:56:26;;;;;;;16.60;15.30;;;18.80;99.90;;;;;;4951500;29;20456;-81
2023/06/06 04:58:53;;;;;;;15.50;14.63;;;19.50;99.90;;;;;;4951584;29;20467;-81
2023/06/06 05:01:20;;;;;;;16.93;16.03;;;19.60;99.90;;;;;;4954316;29;20459;-83
2023/06/06 05:03:47;;;;;;;16.87;15.70;;;19.70;99.90;;;;;;4952368;29;20571;-83
2023/06/06 05:06:15;;;;;;;16.70;15.70;;;19.90;99.90;;;;;;4954810;29;20460;-82
2023/06/06 05:08:44;;;;;;;16.97;15.93;;;20.30;99.90;;;;;;4957414;29;20460;-80
2023/06/06 05:11:11;;;;;;;15.80;14.80;;;20.30;99.90;;;;;;4954553;29;20571;-82
2023/06/06 05:13:38;;;;;;;16.63;15.63;;;20.40;99.90;;;;;;4951353;29;20444;-81
2023/06/06 05:16:05;;;;;;;18.00;16.70;;;20.70;99.90;;;;;;4951503;29;20460;-83
2023/06/06 05:18:32;;;;;;;17.57;16.27;;;21.10;99.90;;;;;;4951190;29;20453;-80
2023/06/06 05:21:02;;;;;;;18.33;16.93;;;21.20;99.90;;;;;;4950966;29;20467;-81
2023/06/06 05:23:30;;;;;;;18.50;17.40;;;21.40;99.90;;;;;;4951295;29;20532;-79
2023/06/06 05:25:58;;;;;;;19.63;18.33;;;21.40;99.90;;;;;;4950760;29;20461;-79
2023/06/06 05:28:25;;;;;;;18.60;17.17;;;21.60;99.90;;;;;;4950701;29;20448;-81
2023/06/06 05:30:53;;;;;;;18.87;17.57;;;21.90;99.90;;;;;;4949476;28;20448;-81
2023/06/06 05:33:19;;;;;;;19.10;17.90;;;21.90;99.90;;;;;;4950885;28;20874;-81
2023/06/06 05:35:47;;;;;;;20.87;19.17;;;21.70;99.90;;;;;;4954147;29;20448;-83
2023/06/06 05:38:15;;;;;;;20.67;19.03;;;21.40;99.90;;;;;;4953890;28;20484;-82
2023/06/06 05:40:43;;;;;;;18.07;16.77;;;21.00;99.90;;;;;;4953850;29;20456;-81
2023/06/06 05:43:10;;;;;;;15.07;14.30;;;20.80;99.90;;;;;;4953887;29;20797;-82
2023/06/06 05:45:37;;;;;;;15.60;14.53;;;20.60;99.90;;;;;;4953930;29;20488;-82
2023/06/06 05:48:04;;;;;;;17.20;16.10;;;20.80;99.90;;;;;;4953529;28;20472;-83
2023/06/06 05:50:31;;;;;;;15.53;14.70;;;21.20;99.90;;;;;;4953654;29;20496;-82
2023/06/06 05:52:58;;;;;;;15.10;14.30;;;21.70;99.10;;;;;;4953544;29;20467;-82
2023/06/06 05:55:28;;;;;;;14.47;13.77;;;22.60;97.30;;;;;;4953446;29;20456;-81
2023/06/06 05:57:57;;;;;;;14.17;13.47;;;23.10;95.60;;;;;;4953609;29;20456;-80
2023/06/06 06:00:24;;;;;;;14.90;14.17;;;24.10;93.80;;;;;;4953378;29;20452;-80
2023/06/06 06:02:51;;;;;;;14.30;13.47;;;24.50;91.70;;;;;;4953564;29;20471;-81
2023/06/06 06:05:18;;;;;;;16.73;15.63;;;24.50;91.70;;;;;;4953241;29;20498;-81
2023/06/06 06:07:47;;;;;;;16.47;14.93;;;24.80;91.80;;;;;;4953612;29;20483;-80
2023/06/06 06:10:14;;;;;;;16.00;14.97;;;24.90;90.50;;;;;;4953858;29;20452;-81
2023/06/06 06:12:42;;;;;;;16.83;15.60;;;25.40;89.70;;;;;;4953973;29;20460;-82
2023/06/06 06:15:12;;;;;;;16.77;15.70;;;25.70;88.40;;;;;;4953277;29;20787;-82
2023/06/06 06:17:38;;;;;;;17.23;15.57;;;26.00;86.50;;;;;;4953229;29;20899;-82
2023/06/06 06:20:08;;;;;;;16.67;15.77;;;25.90;87.00;;;;;;4953143;29;20456;-82
2023/06/06 06:22:35;;;;;;;17.00;16.00;;;26.40;85.00;;;;;;4953408;29;20452;-83
2023/06/06 06:25:03;;;;;;;16.93;15.83;;;26.40;83.80;;;;;;4952670;29;20492;-80
2023/06/06 06:27:30;;;;;;;16.50;15.60;;;26.50;82.90;;;;;;4951092;29;20464;-84
2023/06/06 06:29:59;;;;;;;17.17;16.27;;;26.40;82.60;;;;;;4952919;29;20488;-73
2023/06/06 06:32:27;;;;;;;18.37;17.33;;;26.40;82.60;;;;;;4950183;29;20753;-74
2023/06/06 06:34:55;;;;;;;17.20;16.10;;;26.00;84.30;;;;;;4951774;29;20449;-75
2023/06/06 06:37:21;;;;;;;17.97;16.87;;;26.50;82.60;;;;;;4952820;29;20459;-76
2023/06/06 06:39:49;;;;;;;16.30;15.33;;;26.70;80.70;;;;;;4952562;29;20814;-78
2023/06/06 06:42:15;;;;;;;16.80;15.90;;;26.80;80.50;;;;;;4952918;29;20464;-77
2023/06/06 06:44:42;;;;;;;17.00;16.00;;;26.70;79.70;;;;;;4952356;28;20520;-81
2023/06/06 06:47:09;;;;;;;16.90;16.00;;;27.00;78.70;;;;;;4953360;28;20476;-83
2023/06/06 06:49:40;;;;;;;15.53;14.83;;;26.80;78.60;;;;;;4952758;29;20492;-81
2023/06/06 06:52:08;;;;;;;16.60;15.90;;;26.80;80.20;;;;;;4952642;29;20452;-74
2023/06/06 06:54:35;;;;;;;18.50;17.10;;;26.90;79.50;;;;;;4952304;29;20536;-73
2023/06/06 06:57:02;;;;;;;16.67;15.70;;;27.50;77.20;;;;;;4952041;29;20464;-74
2023/06/06 06:59:29;;;;;;;17.90;16.90;;;27.30;77.80;;;;;;4951915;29;20456;-75
2023/06/06 07:01:56;;;;;;;17.20;16.40;;;28.10;75.30;;;;;;4951860;29;20812;-75
2023/06/06 07:04:22;;;;;;;17.30;16.40;;;28.40;72.80;;;;;;4952097;29;20495;-76
2023/06/06 07:06:50;;;;;;;17.47;16.47;;;28.50;72.60;;;;;;4970295;28;20456;-76
2023/06/06 07:09:20;;;;;;;18.13;16.93;;;28.20;72.20;;;;;;4970817;28;20452;-76
2023/06/06 07:11:46;;;;;;;16.27;15.37;;;28.30;72.20;;;;;;4970992;28;20460;-75
2023/06/06 07:14:13;;;;;;;17.93;16.73;;;28.50;71.90;;;;;;4971155;28;20456;-75
2023/06/06 07:16:41;;;;;;;17.60;16.30;;;28.90;70.40;;;;;;4970845;28;20451;-75
2023/06/06 07:19:08;;;;;;;17.07;16.03;;;29.30;69.00;;;;;;4970972;28;20452;-75
2023/06/06 07:21:36;;;;;;;17.43;16.33;;;29.30;68.90;;;;;;4971293;28;20456;-75
2023/06/06 07:24:04;;;;;;;19.63;18.23;;;29.30;68.40;;;;;;4970938;28;20467;-75
2023/06/06 07:26:31;;;;;;;17.67;16.60;;;30.00;65.80;;;;;;4970616;28;20767;-76
2023/06/06 07:28:57;;;;;;;16.80;16.00;;;30.50;64.00;;;;;;4970559;28;20534;-74
2023/06/06 07:31:25;;;;;;;16.57;15.77;;;30.90;61.70;;;;;;4970926;28;20460;-75
2023/06/06 07:33:52;;;;;;;16.60;15.80;;;31.00;59.40;;;;;;4970686;28;20455;-75
2023/06/06 07:36:19;;;;;;;16.47;15.67;;;30.50;59.10;;;;;;4970405;28;20472;-75
2023/06/06 07:38:46;;;;;;;16.87;16.07;;;30.70;58.40;;;;;;4951300;29;20867;-75
2023/06/06 07:41:14;;;;;;;16.37;15.57;;;30.10;58.60;;;;;;4951430;29;20648;-75
2023/06/06 07:43:41;;;;;;;15.50;14.80;;;29.30;58.70;;;;;;4951390;29;20444;-75
2023/06/06 07:46:07;;;;;;;15.30;14.70;;;29.10;59.50;;;;;;4951620;29;20515;-76
2023/06/06 07:48:34;;;;;;;16.30;15.50;;;28.60;60.80;;;;;;4951095;28;20488;-75
2023/06/06 07:51:01;;;;;;;15.40;14.80;;;28.40;60.80;;;;;;4951243;29;20488;-75
2023/06/06 07:53:27;;;;;;;14.93;14.23;;;27.50;61.60;;;;;;4951084;29;20463;-75
2023/06/06 07:55:54;;;;;;;15.00;14.40;;;27.20;63.30;;;;;;4950722;28;20460;-74
2023/06/06 07:58:26;;;;;;;15.43;14.73;;;27.50;64.10;;;;;;4950917;29;20587;-75
2023/06/06 08:00:53;;;;;;;14.57;13.97;;;27.70;63.30;;;;;;4951204;29;20460;-75
2023/06/06 08:03:19;;;;;;;14.47;13.87;;;27.80;62.60;;;;;;4951246;29;20460;-76
2023/06/06 08:05:46;;;;;;;15.57;14.87;;;27.70;64.20;;;;;;4950791;29;21042;-75
2023/06/06 08:08:13;;;;;;;16.13;15.33;;;28.30;61.90;;;;;;4951006;29;20873;-77
2023/06/06 08:10:39;;;;;;;15.77;15.17;;;28.90;59.40;;;;;;4951134;29;20456;-77
2023/06/06 08:13:06;;;;;;;16.23;15.47;;;29.30;59.20;;;;;;4951073;29;20783;-77
2023/06/06 08:15:34;;;;;;;15.70;15.00;;;28.80;59.70;;;;;;4950834;29;20484;-77
2023/06/06 08:18:01;;;;;;;15.20;14.50;;;28.40;61.20;;;;;;4950700;29;20452;-76
2023/06/06 08:20:28;;;;;;;16.63;15.83;;;27.80;61.80;;;;;;4950736;29;20449;-76
2023/06/06 08:22:54;;;;;;;16.07;15.27;;;27.70;61.50;;;;;;4950699;29;20467;-76
2023/06/06 08:25:21;;;;;;;15.97;15.37;;;27.70;62.60;;;;;;4950841;29;20492;-75
2023/06/06 08:27:48;;;;;;;16.37;15.67;;;28.00;62.80;;;;;;4950687;29;20573;-75
2023/06/06 08:30:15;;;;;;;15.97;15.37;;;28.60;60.80;;;;;;4950827;29;20453;-75
2023/06/06 08:32:43;;;;;;;16.43;15.53;;;29.60;59.70;;;;;;4955916;28;20813;-81
2023/06/06 08:35:10;;;;;;;16.77;16.07;;;30.30;58.50;;;;;;4969620;28;20985;-75
2023/06/06 08:37:36;;;;;;;16.00;15.40;;;30.60;58.00;;;;;;4969932;28;20455;-75
2023/06/06 08:40:04;;;;;;;16.17;15.47;;;30.40;57.80;;;;;;4969243;28;20451;-75
2023/06/06 08:42:34;;;;;;;15.70;15.00;;;30.40;58.00;;;;;;4969026;28;20462;-76
2023/06/06 08:45:03;;;;;;;17.00;16.40;;;30.90;57.00;;;;;;4967064;28;20483;-75
2023/06/06 08:47:32;;;;;;;16.93;16.23;;;31.20;56.30;;;;;;4950151;28;21018;-75
2023/06/06 08:50:00;;;;;;;16.30;15.40;;;30.60;56.80;;;;;;4949974;29;20869;-75
2023/06/06 08:52:28;;;;;;;16.80;16.10;;;31.00;56.80;;;;;;4950462;29;20444;-75
2023/06/06 08:54:55;;;;;;;16.93;16.23;;;31.20;56.30;;;;;;4950217;29;20461;-75
2023/06/06 08:57:22;;;;;;;17.43;16.43;;;31.30;55.60;;;;;;4950383;29;20549;-75
2023/06/06 08:59:49;;;;;;;18.40;17.50;;;31.80;55.10;;;;;;4950168;29;20546;-75
2023/06/06 09:02:16;;;;;;;17.13;16.10;;;31.20;56.40;;;;;;4950143;29;20503;-75
2023/06/06 09:04:44;;;;;;;17.10;16.40;;;31.90;55.40;;;;;;4949970;29;20516;-75
2023/06/06 09:07:14;;;;;;;16.90;16.20;;;32.50;54.20;;;;;;4954982;28;20783;-76
2023/06/06 09:09:44;;;;;;;17.10;16.40;;;32.40;54.20;;;;;;4963926;28;20467;-75
2023/06/06 09:12:11;;;;;;;17.30;16.60;;;33.50;53.10;;;;;;4969027;28;20452;-75
2023/06/06 09:14:38;;;;;;;17.67;16.67;;;33.40;51.00;;;;;;4973498;28;20460;-75
2023/06/06 09:17:06;;;;;;;17.23;16.43;;;33.40;50.60;;;;;;4973452;28;20452;-75
2023/06/06 09:19:33;;;;;;;16.33;15.67;;;33.30;48.40;;;;;;4973208;28;20824;-75
2023/06/06 09:22:00;;;;;;;15.80;15.10;;;32.20;49.30;;;;;;4973178;28;20478;-75
2023/06/06 09:24:29;;;;;;;16.03;15.33;;;31.40;50.10;;;;;;4973230;28;20482;-75
2023/06/06 09:26:56;;;;;;;16.27;15.67;;;31.00;51.10;;;;;;4972975;28;20491;-75
2023/06/06 09:29:25;;;;;;;15.50;14.90;;;31.00;51.60;;;;;;4973054;28;20452;-75
2023/06/06 09:31:52;;;;;;;16.73;15.83;;;30.70;51.50;;;;;;4973238;28;20448;-76
2023/06/06 09:34:24;;;;;;;15.93;15.10;;;30.10;51.50;;;;;;4973336;28;20451;-76
2023/06/06 09:36:55;;;;;;;16.80;16.10;;;29.80;52.40;;;;;;4973496;28;20451;-75
2023/06/06 09:39:22;;;;;;;15.83;15.13;;;29.30;52.10;;;;;;4973300;28;20950;-75
2023/06/06 09:41:50;;;;;;;15.33;14.73;;;29.60;52.60;;;;;;4973199;28;20493;-75
2023/06/06 09:44:21;;;;;;;15.33;14.63;;;29.50;53.30;;;;;;4973060;28;20455;-75
2023/06/06 09:46:48;;;;;;;15.50;14.80;;;29.80;53.00;;;;;;4972832;28;20495;-75
2023/06/06 09:49:14;;;;;;;15.83;15.13;;;29.80;52.00;;;;;;4969700;28;20833;-76
2023/06/06 09:51:42;;;;;;;15.90;15.10;;;30.50;51.00;;;;;;4972977;28;20455;-76
2023/06/06 09:54:10;;;;;;;16.47;15.67;;;31.00;50.30;;;;;;4973214;28;20483;-75
2023/06/06 09:56:39;;;;;;;15.93;15.27;;;31.80;48.50;;;;;;4973117;28;20933;-75
2023/06/06 09:59:08;;;;;;;17.03;16.33;;;32.40;47.50;;;;;;4973086;28;20462;-75
2023/06/06 10:01:38;;;;;;;16.17;15.30;;;32.40;47.30;;;;;;4972905;28;20460;-76
2023/06/06 10:04:06;;;;;;;16.27;15.57;;;32.60;46.60;;;;;;4972876;28;20506;-76
2023/06/06 10:06:34;;;;;;;18.30;17.40;;;33.30;46.70;;;;;;4972816;28;20491;-76
2023/06/06 10:09:01;;;;;;;17.70;16.60;;;33.40;45.80;;;;;;4972364;28;20459;-76
2023/06/06 10:11:28;;;;;;;17.43;16.53;;;32.80;46.10;;;;;;4972353;28;20929;-76
2023/06/06 10:13:56;;;;;;;17.27;16.57;;;32.90;46.90;;;;;;4972159;28;20973;-76
2023/06/06 10:16:27;;;;;;;16.53;15.93;;;33.20;45.30;;;;;;4972575;28;20456;-75
2023/06/06 10:18:54;;;;;;;17.20;16.40;;;33.40;44.40;;;;;;4972235;28;20495;-75
2023/06/06 10:21:22;;;;;;;17.67;16.77;;;32.30;46.70;;;;;;4971992;28;20451;-75
2023/06/06 10:23:49;;;;;;;16.23;15.57;;;32.70;47.70;;;;;;4972456;28;20447;-75
2023/06/06 10:26:21;;;;;;;16.93;16.10;;;33.50;46.80;;;;;;4972062;28;20614;-75
2023/06/06 10:28:57;;;;;;;16.20;15.40;;;33.40;46.70;;;;;;4972283;28;20863;-76
2023/06/06 10:31:32;;;;;;;16.80;16.00;;;32.30;46.30;;;;;;4972458;28;20474;-75
2023/06/06 10:34:03;;;;;;;16.60;15.70;;;32.30;47.90;;;;;;4972191;28;20501;-75
2023/06/06 10:36:40;;;;;;;16.60;15.87;;;32.50;47.40;;;;;;4972327;28;20460;-76
2023/06/06 10:39:20;;;;;;;15.73;15.03;;;33.00;46.80;;;;;;4972246;28;20506;-76
2023/06/06 10:41:55;;;;;;;16.37;15.57;;;32.40;46.30;;;;;;4972066;28;20968;-76
2023/06/06 10:44:25;;;;;;;16.97;16.27;;;32.40;47.30;;;;;;4972240;28;20906;-76
2023/06/06 10:47:27;;;;;;;17.07;16.37;;;32.40;47.80;;;;;;4971644;28;20491;-77
2023/06/06 10:50:26;;;;;;;16.30;15.50;;;33.80;45.70;;;;;;4971644;28;20521;-76
2023/06/06 10:52:56;;;;;;;15.70;15.10;;;34.00;45.80;;;;;;4911917;29;20887;-76
2023/06/06 10:55:45;;;;;;;14.80;14.27;;;34.00;46.00;;;;;;4911749;29;20451;-75
2023/06/06 10:58:19;;;;;;;16.63;15.93;;;34.40;45.20;;;;;;4948356;28;20539;-76
2023/06/06 11:00:47;;;;;;;16.30;15.60;;;33.30;44.20;;;;;;4971297;28;21264;-76
2023/06/06 11:03:19;;;;;;;16.10;15.40;;;33.20;45.30;;;;;;4971365;28;20455;-77
2023/06/06 11:06:13;;;;;;;16.70;16.00;;;32.80;45.70;;;;;;4971169;28;20491;-74
2023/06/06 11:08:42;;;;;;;17.10;16.20;;;33.60;45.90;;;;;;4971160;28;20459;-75
2023/06/06 11:11:25;;;;;;;16.00;15.20;;;33.60;44.90;;;;;;4971174;28;20451;-75
2023/06/06 11:13:53;;;;;;;16.20;15.50;;;33.40;46.00;;;;;;4971333;28;20574;-76
2023/06/06 11:16:29;;;;;;;16.87;16.17;;;32.60;45.90;;;;;;4971103;28;20451;-76
2023/06/06 11:19:03;;;;;;;16.30;15.70;;;30.70;45.70;;;;;;4970856;28;20455;-75
2023/06/06 11:21:31;;;;;;;16.30;15.43;;;30.30;47.20;;;;;;4970854;28;20477;-76
2023/06/06 11:23:59;;;;;;;16.30;15.60;;;31.00;46.70;;;;;;4971213;28;20476;-75
2023/06/06 11:26:26;;;;;;;17.63;16.73;;;31.90;46.20;;;;;;4970644;28;20611;-77
2023/06/06 11:28:55;;;;;;;16.17;15.37;;;32.60;45.60;;;;;;4970990;28;20976;-77
2023/06/06 11:31:24;;;;;;;15.93;15.20;;;33.50;45.70;;;;;;4970235;28;20534;-76
2023/06/06 11:33:51;;;;;;;17.10;16.30;;;33.70;46.50;;;;;;4971251;28;20460;-76
2023/06/06 11:36:20;;;;;;;17.67;16.63;;;34.40;47.00;;;;;;4970593;28;20447;-77
2023/06/06 11:38:47;;;;;;;17.70;16.90;;;34.70;46.20;;;;;;4970417;28;20460;-77
2023/06/06 11:41:13;;;;;;;17.17;16.33;;;34.20;47.00;;;;;;4970491;28;20455;-77
2023/06/06 11:43:49;;;;;;;17.47;16.77;;;33.20;47.40;;;;;;4970439;28;20467;-77
2023/06/06 11:46:17;;;;;;;18.03;17.10;;;32.30;47.50;;;;;;4970406;28;20891;-77
2023/06/06 11:48:44;;;;;;;15.90;15.23;;;30.70;48.90;;;;;;4970001;28;20582;-76
2023/06/06 11:51:11;;;;;;;16.77;15.87;;;29.30;50.70;;;;;;4970321;28;20800;-76
2023/06/06 11:53:40;;;;;;;15.30;14.50;;;28.70;50.80;;;;;;4970647;28;20456;-76
2023/06/06 11:56:07;;;;;;;17.50;16.20;;;28.30;51.30;;;;;;4970292;28;20455;-76
2023/06/06 11:58:40;;;;;;;16.07;15.27;;;29.10;51.70;;;;;;4970508;28;20448;-76
2023/06/06 12:01:09;;;;;;;16.30;15.40;;;29.90;50.70;;;;;;4970567;28;20462;-76
2023/06/06 12:03:35;;;;;;;16.63;15.50;;;30.20;50.40;;;;;;4970408;28;20558;-77
2023/06/06 12:06:04;;;;;;;16.83;16.03;;;29.70;51.00;;;;;;4969788;28;20847;-77
2023/06/06 12:08:33;;;;;;;16.53;15.73;;;29.50;51.60;;;;;;4970033;28;20889;-76
2023/06/06 12:11:20;;;;;;;16.90;16.10;;;29.50;51.50;;;;;;4969864;28;21060;-76
2023/06/06 12:13:47;;;;;;;17.70;16.80;;;29.90;50.80;;;;;;4970072;28;20499;-76
2023/06/06 12:16:21;;;;;;;16.33;15.53;;;29.50;50.50;;;;;;4970256;28;20516;-77
2023/06/06 12:18:48;;;;;;;15.50;14.70;;;28.90;51.50;;;;;;4969866;28;20452;-77
2023/06/06 12:21:16;;;;;;;14.67;14.17;;;29.90;50.70;;;;;;4969684;28;20455;-77
2023/06/06 12:23:43;;;;;;;16.17;15.47;;;30.70;49.70;;;;;;4970022;28;20623;-75
2023/06/06 12:26:12;;;;;;;17.73;16.93;;;30.60;49.70;;;;;;4969585;28;20554;-75
2023/06/06 12:28:54;;;;;;;17.10;16.30;;;31.70;49.40;;;;;;4969839;28;20518;-76
2023/06/06 12:31:22;;;;;;;16.60;15.80;;;32.60;47.40;;;;;;4969974;28;20550;-75
2023/06/06 12:33:48;;;;;;;16.03;15.23;;;32.00;46.10;;;;;;4970133;28;20957;-76
2023/06/06 12:36:17;;;;;;;16.73;16.03;;;31.40;47.40;;;;;;4969686;28;20448;-76
2023/06/06 12:38:44;;;;;;;17.63;16.93;;;31.20;47.70;;;;;;4970067;28;20730;-76
2023/06/06 12:41:12;;;;;;;16.07;15.37;;;31.60;48.10;;;;;;4970151;28;20577;-76
2023/06/06 12:43:39;;;;;;;16.40;15.60;;;31.60;47.90;;;;;;4969724;28;20463;-76
2023/06/06 12:46:06;;;;;;;15.77;14.97;;;30.60;48.40;;;;;;4970034;28;20490;-75
2023/06/06 12:48:33;;;;;;;16.20;15.50;;;29.40;49.40;;;;;;4969490;28;20484;-76
2023/06/06 12:50:59;;;;;;;16.60;15.80;;;29.70;50.60;;;;;;4969614;28;20462;-76
2023/06/06 12:53:26;;;;;;;17.60;16.30;;;30.30;50.00;;;;;;4969849;28;20455;-76
2023/06/06 12:55:53;;;;;;;16.90;16.10;;;31.10;49.20;;;;;;4969861;28;20455;-74
2023/06/06 12:58:21;;;;;;;15.87;15.17;;;30.70;49.00;;;;;;4970035;28;20454;-75
2023/06/06 13:00:48;;;;;;;16.40;15.70;;;29.50;50.10;;;;;;4970044;28;20459;-75
2023/06/06 13:03:15;;;;;;;16.70;16.00;;;29.20;50.60;;;;;;4969644;28;20816;-75
2023/06/06 13:05:41;;;;;;;16.63;15.73;;;29.60;49.50;;;;;;4963799;28;20589;-75
2023/06/06 13:08:08;;;;;;;16.17;15.37;;;30.40;48.90;;;;;;4959054;28;20456;-75
2023/06/06 13:10:35;;;;;;;15.20;14.50;;;31.20;48.50;;;;;;4950514;29;20456;-75
2023/06/06 13:13:02;;;;;;;15.60;15.00;;;31.80;47.50;;;;;;4950247;29;20658;-76
2023/06/06 13:15:32;;;;;;;16.30;15.60;;;32.20;48.00;;;;;;4950075;29;20689;-76
2023/06/06 13:17:59;;;;;;;16.70;15.67;;;33.70;50.80;;;;;;4950002;29;20643;-76
2023/06/06 13:20:26;;;;;;;16.20;15.40;;;33.50;49.60;;;;;;4949993;29;20942;-76
2023/06/06 13:22:52;;;;;;;17.57;16.70;;;32.90;49.80;;;;;;4950392;29;20824;-75
2023/06/06 13:25:20;;;;;;;17.63;16.57;;;32.40;50.10;;;;;;4950182;29;20965;-76
2023/06/06 13:27:48;;;;;;;17.60;16.70;;;31.20;50.00;;;;;;4950415;29;20488;-76
2023/06/06 13:30:14;;;;;;;16.80;16.00;;;30.40;50.60;;;;;;4950656;29;20460;-76
2023/06/06 13:32:43;;;;;;;16.80;15.67;;;29.70;51.30;;;;;;4950796;29;20577;-76
2023/06/06 13:35:11;;;;;;;15.30;14.60;;;29.20;51.60;;;;;;4950760;29;20834;-75
2023/06/06 13:37:38;;;;;;;15.60;14.70;;;29.00;50.40;;;;;;4951159;29;21032;-76
2023/06/06 13:40:06;;;;;;;15.97;15.07;;;29.40;50.00;;;;;;4950645;29;20457;-75
2023/06/06 13:42:33;;;;;;;15.50;14.80;;;30.00;49.90;;;;;;4950855;29;20801;-76
2023/06/06 13:45:01;;;;;;;16.33;15.60;;;30.10;49.70;;;;;;4950734;29;20463;-76
2023/06/06 13:47:27;;;;;;;15.87;15.17;;;30.30;50.00;;;;;;4950275;28;20523;-76
2023/06/06 13:49:57;;;;;;;15.57;14.63;;;30.50;49.10;;;;;;4950468;29;20998;-77
2023/06/06 13:52:24;;;;;;;16.43;15.73;;;30.40;48.60;;;;;;4950624;29;20461;-82
2023/06/06 13:54:51;;;;;;;15.47;14.77;;;29.10;49.70;;;;;;4951741;28;20503;-76
2023/06/06 13:57:18;;;;;;;17.37;16.40;;;28.30;51.40;;;;;;4952384;29;20452;-75
2023/06/06 13:59:45;;;;;;;16.30;15.50;;;27.70;52.30;;;;;;4953803;29;20475;-76
2023/06/06 14:02:11;;;;;;;15.60;14.73;;;27.50;53.20;;;;;;4953479;29;20448;-76
2023/06/06 14:04:39;;;;;;;15.10;14.33;;;27.20;53.80;;;;;;4953999;29;20460;-75
2023/06/06 14:07:07;;;;;;;16.30;15.50;;;27.90;53.30;;;;;;4954352;29;20483;-76
2023/06/06 14:09:34;;;;;;;15.80;15.10;;;29.00;52.30;;;;;;4954276;29;20449;-76
2023/06/06 14:12:01;;;;;;;14.70;14.00;;;29.30;50.60;;;;;;4954957;28;20492;-76
2023/06/06 14:14:28;;;;;;;14.97;14.20;;;29.00;50.40;;;;;;4962998;28;20447;-75
2023/06/06 14:16:55;;;;;;;14.63;13.93;;;29.00;50.80;;;;;;4964289;28;20436;-76
2023/06/06 14:19:36;;;;;;;15.50;14.80;;;29.60;50.50;;;;;;4963707;28;20451;-76
2023/06/06 14:22:24;;;;;;;15.63;14.90;;;29.90;50.90;;;;;;4960830;28;20457;-76
2023/06/06 14:24:55;;;;;;;14.30;13.70;;;29.80;48.70;;;;;;4962692;28;20460;-76
2023/06/06 14:27:22;;;;;;;14.60;13.90;;;30.30;49.50;;;;;;4960061;28;20484;-76
2023/06/06 14:29:49;;;;;;;14.90;14.30;;;30.40;49.50;;;;;;4963286;28;20445;-76
2023/06/06 14:32:17;;;;;;;15.93;15.03;;;29.80;50.20;;;;;;4961624;28;20445;-76
2023/06/06 14:34:46;;;;;;;14.73;14.13;;;28.90;50.90;;;;;;4962885;28;21194;-75
2023/06/06 14:37:12;;;;;;;15.57;14.87;;;28.30;51.10;;;;;;4963470;28;20941;-76
2023/06/06 14:39:39;;;;;;;15.43;14.73;;;28.00;51.90;;;;;;4934015;29;20446;-76
2023/06/06 14:42:08;;;;;;;14.80;14.10;;;27.40;52.40;;;;;;4945158;28;20449;-76
2023/06/06 14:44:36;;;;;;;13.27;12.77;;;27.10;52.10;;;;;;4961479;28;20464;-76
2023/06/06 14:47:05;;;;;;;14.77;13.67;;;27.10;52.70;;;;;;4962899;28;20480;-75
2023/06/06 14:49:32;;;;;;;14.27;13.50;;;27.50;53.30;;;;;;4963087;28;20487;-76
2023/06/06 14:52:00;;;;;;;14.27;13.57;;;27.70;52.20;;;;;;4961111;28;20453;-75
2023/06/06 14:54:27;;;;;;;13.37;12.77;;;28.10;51.70;;;;;;4962145;28;20630;-76
2023/06/06 14:56:54;;;;;;;13.87;13.07;;;28.60;51.20;;;;;;4963060;28;20492;-76
2023/06/06 14:59:22;;;;;;;14.53;13.50;;;28.60;50.40;;;;;;4966862;28;20451;-76
2023/06/06 15:01:49;;;;;;;14.57;13.93;;;28.40;50.30;;;;;;4972338;28;20478;-78
2023/06/06 15:04:15;;;;;;;14.27;13.67;;;28.20;50.20;;;;;;4972112;28;20456;-76
2023/06/06 15:06:42;;;;;;;14.60;14.00;;;27.50;49.80;;;;;;4971572;28;20488;-76
2023/06/06 15:09:09;;;;;;;13.23;12.73;;;27.20;50.00;;;;;;4972059;28;20462;-76
2023/06/06 15:11:36;;;;;;;14.07;13.33;;;26.90;50.70;;;;;;4972509;28;20459;-76
2023/06/06 15:14:04;;;;;;;14.30;13.53;;;27.00;51.10;;;;;;4972061;28;20447;-75
2023/06/06 15:16:32;;;;;;;13.17;12.40;;;26.80;51.00;;;;;;4971848;28;20463;-76
2023/06/06 15:18:59;;;;;;;14.63;13.67;;;26.80;52.10;;;;;;4972001;28;20456;-76
2023/06/06 15:21:26;;;;;;;13.83;13.03;;;27.00;51.60;;;;;;4972074;28;20459;-77